Language selection

Features

My Weather Profile Weather Topics  | 

Douglas Channel: Past 24 Hour Conditions

 

Sandspit Airport

04:00 PM PST 27 November 2021
Disclaimer

This table is a summary of hourly weather conditions for the past 24 hours.
Please note that these observations might not always be representative of weather conditions over their associated marine area.

Date / Time
(PST)
Wind(knots) Conditions Visibility(km) Pressure(kPa) Air tempC) Relative humidity(%) Dew pointC)
27 November 2021
16:00 SW 12 gust 23 Sunny 16 99.5 10 73 5
15:00 SSW 7 Sunny 16 99.5 10 76 6
14:00 SSW 6 Sunny 16 99.5 11 74 6
13:00 S 11 gust 21 Sunny 16 99.5 10 75 6
12:00 SSW 7 Sunny 16 99.5 11 80 8
11:00 SSE 7 Partly Cloudy 11 99.5 10 89 8
10:00 calm Partly Cloudy 13 99.5 7 97 6
9:00 S 11 Mostly Cloudy 13 99.4 8 96 7
8:00 SSE 14 gust 20 Mist 10 99.4 9 96 8
7:00 SSE 31 gust 39 Mist 5 99.4 9 96 8
6:00 SE 36 gust 46 Light Rain 5 99.6 8 96 7
5:00 SE 33 gust 43 Light Rain 3 99.8 7 95 6
4:00 SE 36 gust 46 Light Rain 4 100.1 6 92 5
3:00 SE 35 gust 44 Light Rain 4 100.3 6 91 5
2:00 SE 30 gust 40 Light Rain 4 100.6 6 91 4
1:00 SE 27 gust 36 Light Rain 11 100.9 5 87 3
0:00 SSE 29 gust 34 Light Rain 13 101.1 5 83 3
26 November 2021
23:00 SSE 23 Light Rain 16 101.3 5 77 1
22:00 SSE 16 gust 23 Light Rain 16 101.4 5 79 2
21:00 SSE 10 gust 16 Cloudy 16 101.5 4 79 1
20:00 S 5 Cloudy 16 101.6 4 81 1
19:00 S 4 Cloudy 16 101.8 3 85 1
18:00 S 5 Mostly Cloudy 16 101.8 2 84 0
17:00 S 9 Mostly Cloudy 16 101.9 3 81 1
16:00 S 6 Mostly Cloudy 16 101.9 3 85 1

Zoom-in to make a selection

Map of Pacific - North Coast marine weather areas Middle Nomad - 46004 South Nomad - 46036 Dixon Entrance Central - 46145 South Moresby - 46147 Nanakwa Shoal - 46181 North Hecate Strait - 46183 North Nomad - 46184 South Hecate Strait - 46185 West Sea Otter - 46204 West Dixon Entrance - 46205 East Dellwood - 46207 West Moresby - 46208 Sartine Island Cape St.James Kindakun Rocks Langara Island Masset Municipal Airport Rose Spit Sandspit Airport Bella Bella Airport Bella Coola Airport Bonilla Island Cathedral Point Cumshewa Island Grey Islet Holland Rock Lucy Islands Lightstation Prince Rupert Airport
Legend:
buoy Buoy
land station Land Station

Pacific - North Coast Area

Another Region

What we are doing

Date modified: